sensor_id;sensor_type;location;lat;lon;timestamp;P1;durP1;ratioP1;P2;durP2;ratioP2
12707;SDS011;6418;50.824;4.718;2023-10-13T00:01:47;40.33;;;25.73;;
12707;SDS011;6418;50.824;4.718;2023-10-13T00:04:17;43.73;;;26.00;;
12707;SDS011;6418;50.824;4.718;2023-10-13T00:06:47;43.83;;;25.30;;
12707;SDS011;6418;50.824;4.718;2023-10-13T00:09:14;45.53;;;25.67;;
12707;SDS011;6418;50.824;4.718;2023-10-13T00:11:41;45.63;;;26.70;;
12707;SDS011;6418;50.824;4.718;2023-10-13T00:14:11;46.83;;;26.77;;
12707;SDS011;6418;50.824;4.718;2023-10-13T00:16:41;43.30;;;26.97;;
12707;SDS011;6418;50.824;4.718;2023-10-13T00:19:27;46.07;;;26.07;;
12707;SDS011;6418;50.824;4.718;2023-10-13T00:22:02;44.47;;;25.90;;
12707;SDS011;6418;50.824;4.718;2023-10-13T00:24:34;48.47;;;26.13;;
12707;SDS011;6418;50.824;4.718;2023-10-13T00:27:08;47.47;;;27.37;;
12707;SDS011;6418;50.824;4.718;2023-10-13T00:29:49;52.27;;;27.07;;
12707;SDS011;6418;50.824;4.718;2023-10-13T00:32:29;45.17;;;26.67;;
12707;SDS011;6418;50.824;4.718;2023-10-13T00:34:58;45.97;;;26.17;;
12707;SDS011;6418;50.824;4.718;2023-10-13T00:37:30;45.60;;;26.57;;
12707;SDS011;6418;50.824;4.718;2023-10-13T00:40:07;39.27;;;25.43;;
12707;SDS011;6418;50.824;4.718;2023-10-13T00:42:43;41.67;;;26.37;;
12707;SDS011;6418;50.824;4.718;2023-10-13T00:45:16;49.37;;;27.57;;
12707;SDS011;6418;50.824;4.718;2023-10-13T00:47:43;42.53;;;26.63;;
12707;SDS011;6418;50.824;4.718;2023-10-13T00:50:16;47.50;;;26.33;;
12707;SDS011;6418;50.824;4.718;2023-10-13T00:52:44;44.70;;;25.77;;
12707;SDS011;6418;50.824;4.718;2023-10-13T00:55:15;42.10;;;25.70;;
12707;SDS011;6418;50.824;4.718;2023-10-13T00:57:48;44.27;;;26.13;;
12707;SDS011;6418;50.824;4.718;2023-10-13T01:00:18;38.23;;;25.27;;
12707;SDS011;6418;50.824;4.718;2023-10-13T01:02:50;46.97;;;25.43;;
12707;SDS011;6418;50.824;4.718;2023-10-13T01:05:22;48.33;;;25.97;;
12707;SDS011;6418;50.824;4.718;2023-10-13T01:07:50;43.70;;;25.43;;
12707;SDS011;6418;50.824;4.718;2023-10-13T01:10:19;41.93;;;26.00;;
12707;SDS011;6418;50.824;4.718;2023-10-13T01:12:51;41.20;;;25.03;;
12707;SDS011;6418;50.824;4.718;2023-10-13T01:15:17;42.97;;;26.30;;
12707;SDS011;6418;50.824;4.718;2023-10-13T01:17:47;46.60;;;25.27;;
12707;SDS011;6418;50.824;4.718;2023-10-13T01:20:13;44.83;;;25.00;;
12707;SDS011;6418;50.824;4.718;2023-10-13T01:22:47;41.70;;;24.53;;
12707;SDS011;6418;50.824;4.718;2023-10-13T01:25:22;42.97;;;24.93;;
12707;SDS011;6418;50.824;4.718;2023-10-13T01:27:53;43.33;;;24.83;;
12707;SDS011;6418;50.824;4.718;2023-10-13T01:30:19;41.17;;;23.97;;
12707;SDS011;6418;50.824;4.718;2023-10-13T01:32:49;40.93;;;25.27;;
12707;SDS011;6418;50.824;4.718;2023-10-13T01:35:16;43.13;;;24.67;;
12707;SDS011;6418;50.824;4.718;2023-10-13T01:37:49;44.37;;;24.50;;
12707;SDS011;6418;50.824;4.718;2023-10-13T01:40:15;40.07;;;24.63;;
12707;SDS011;6418;50.824;4.718;2023-10-13T01:42:46;42.23;;;24.67;;
12707;SDS011;6418;50.824;4.718;2023-10-13T01:45:20;40.33;;;23.87;;
12707;SDS011;6418;50.824;4.718;2023-10-13T01:47:46;39.33;;;24.17;;
12707;SDS011;6418;50.824;4.718;2023-10-13T01:50:15;42.07;;;23.23;;
12707;SDS011;6418;50.824;4.718;2023-10-13T01:52:46;42.93;;;24.20;;
12707;SDS011;6418;50.824;4.718;2023-10-13T01:55:13;41.03;;;23.73;;
12707;SDS011;6418;50.824;4.718;2023-10-13T01:57:39;44.57;;;24.30;;
12707;SDS011;6418;50.824;4.718;2023-10-13T02:00:13;41.47;;;24.30;;
12707;SDS011;6418;50.824;4.718;2023-10-13T02:02:45;40.30;;;23.40;;
12707;SDS011;6418;50.824;4.718;2023-10-13T02:05:15;40.63;;;23.17;;
12707;SDS011;6418;50.824;4.718;2023-10-13T02:07:42;38.87;;;22.50;;
12707;SDS011;6418;50.824;4.718;2023-10-13T02:10:10;41.27;;;23.67;;
12707;SDS011;6418;50.824;4.718;2023-10-13T02:12:37;44.53;;;24.23;;
12707;SDS011;6418;50.824;4.718;2023-10-13T02:15:09;39.43;;;23.37;;
12707;SDS011;6418;50.824;4.718;2023-10-13T02:17:39;38.97;;;22.73;;
12707;SDS011;6418;50.824;4.718;2023-10-13T02:20:10;40.50;;;22.97;;
12707;SDS011;6418;50.824;4.718;2023-10-13T02:22:40;36.20;;;21.83;;
12707;SDS011;6418;50.824;4.718;2023-10-13T02:25:14;40.93;;;23.77;;
12707;SDS011;6418;50.824;4.718;2023-10-13T02:27:42;46.33;;;24.03;;
12707;SDS011;6418;50.824;4.718;2023-10-13T02:30:22;36.20;;;23.03;;
12707;SDS011;6418;50.824;4.718;2023-10-13T02:32:52;46.13;;;23.23;;
12707;SDS011;6418;50.824;4.718;2023-10-13T02:35:20;36.07;;;22.33;;
12707;SDS011;6418;50.824;4.718;2023-10-13T02:37:54;37.97;;;22.30;;
12707;SDS011;6418;50.824;4.718;2023-10-13T02:40:34;36.77;;;21.50;;
12707;SDS011;6418;50.824;4.718;2023-10-13T02:43:00;39.23;;;20.90;;
12707;SDS011;6418;50.824;4.718;2023-10-13T02:45:29;35.63;;;20.77;;
12707;SDS011;6418;50.824;4.718;2023-10-13T02:47:57;37.07;;;21.37;;
12707;SDS011;6418;50.824;4.718;2023-10-13T02:50:39;39.07;;;21.80;;
12707;SDS011;6418;50.824;4.718;2023-10-13T02:53:09;40.00;;;22.37;;
12707;SDS011;6418;50.824;4.718;2023-10-13T02:55:48;42.83;;;22.60;;
12707;SDS011;6418;50.824;4.718;2023-10-13T02:58:15;38.40;;;21.67;;
12707;SDS011;6418;50.824;4.718;2023-10-13T03:00:42;43.87;;;22.30;;
12707;SDS011;6418;50.824;4.718;2023-10-13T03:03:10;40.47;;;21.40;;
12707;SDS011;6418;50.824;4.718;2023-10-13T03:05:39;43.60;;;22.67;;
12707;SDS011;6418;50.824;4.718;2023-10-13T03:08:07;39.43;;;22.33;;
12707;SDS011;6418;50.824;4.718;2023-10-13T03:10:36;44.20;;;22.20;;
12707;SDS011;6418;50.824;4.718;2023-10-13T03:13:10;37.30;;;21.33;;
12707;SDS011;6418;50.824;4.718;2023-10-13T03:15:37;40.97;;;21.60;;
12707;SDS011;6418;50.824;4.718;2023-10-13T03:18:03;41.00;;;21.73;;
12707;SDS011;6418;50.824;4.718;2023-10-13T03:20:31;41.03;;;20.90;;
12707;SDS011;6418;50.824;4.718;2023-10-13T03:22:58;37.53;;;20.63;;
12707;SDS011;6418;50.824;4.718;2023-10-13T03:25:25;38.17;;;20.30;;
12707;SDS011;6418;50.824;4.718;2023-10-13T03:28:02;43.17;;;21.10;;
12707;SDS011;6418;50.824;4.718;2023-10-13T03:30:30;34.20;;;19.00;;
12707;SDS011;6418;50.824;4.718;2023-10-13T03:33:03;38.70;;;19.40;;
12707;SDS011;6418;50.824;4.718;2023-10-13T03:35:36;41.50;;;20.13;;
12707;SDS011;6418;50.824;4.718;2023-10-13T03:38:09;41.93;;;20.47;;
12707;SDS011;6418;50.824;4.718;2023-10-13T03:40:52;40.67;;;19.67;;
12707;SDS011;6418;50.824;4.718;2023-10-13T03:43:37;37.50;;;18.40;;
12707;SDS011;6418;50.824;4.718;2023-10-13T03:46:16;42.57;;;18.47;;
12707;SDS011;6418;50.824;4.718;2023-10-13T03:48:47;40.47;;;19.30;;
12707;SDS011;6418;50.824;4.718;2023-10-13T03:51:22;39.50;;;18.90;;
12707;SDS011;6418;50.824;4.718;2023-10-13T03:53:55;37.90;;;19.77;;
12707;SDS011;6418;50.824;4.718;2023-10-13T03:56:23;32.77;;;18.37;;
12707;SDS011;6418;50.824;4.718;2023-10-13T03:59:04;34.43;;;17.93;;
12707;SDS011;6418;50.824;4.718;2023-10-13T04:01:34;37.50;;;18.30;;
12707;SDS011;6418;50.824;4.718;2023-10-13T04:04:11;34.43;;;18.23;;
12707;SDS011;6418;50.824;4.718;2023-10-13T04:06:41;31.97;;;17.53;;
12707;SDS011;6418;50.824;4.718;2023-10-13T04:09:19;38.03;;;18.53;;
12707;SDS011;6418;50.824;4.718;2023-10-13T04:12:05;34.37;;;16.67;;
12707;SDS011;6418;50.824;4.718;2023-10-13T04:14:49;32.93;;;17.53;;
12707;SDS011;6418;50.824;4.718;2023-10-13T04:17:40;31.67;;;16.07;;
12707;SDS011;6418;50.824;4.718;2023-10-13T04:20:10;28.20;;;15.70;;
12707;SDS011;6418;50.824;4.718;2023-10-13T04:22:53;34.37;;;16.63;;
12707;SDS011;6418;50.824;4.718;2023-10-13T04:25:34;34.87;;;16.23;;
12707;SDS011;6418;50.824;4.718;2023-10-13T04:28:17;31.00;;;15.23;;
12707;SDS011;6418;50.824;4.718;2023-10-13T04:30:58;36.43;;;16.23;;
12707;SDS011;6418;50.824;4.718;2023-10-13T04:33:37;29.90;;;15.00;;
12707;SDS011;6418;50.824;4.718;2023-10-13T04:36:18;34.47;;;15.07;;
12707;SDS011;6418;50.824;4.718;2023-10-13T04:39:03;34.47;;;15.50;;
12707;SDS011;6418;50.824;4.718;2023-10-13T04:41:36;33.07;;;14.97;;
12707;SDS011;6418;50.824;4.718;2023-10-13T04:44:04;32.90;;;15.20;;
12707;SDS011;6418;50.824;4.718;2023-10-13T04:46:52;30.17;;;14.87;;
12707;SDS011;6418;50.824;4.718;2023-10-13T04:49:43;33.40;;;14.40;;
12707;SDS011;6418;50.824;4.718;2023-10-13T04:52:18;32.70;;;14.90;;
12707;SDS011;6418;50.824;4.718;2023-10-13T04:55:04;33.73;;;14.83;;
12707;SDS011;6418;50.824;4.718;2023-10-13T04:58:08;34.93;;;15.03;;
12707;SDS011;6418;50.824;4.718;2023-10-13T05:00:52;35.10;;;15.20;;
12707;SDS011;6418;50.824;4.718;2023-10-13T05:03:42;32.90;;;14.57;;
12707;SDS011;6418;50.824;4.718;2023-10-13T05:06:27;31.40;;;15.03;;
12707;SDS011;6418;50.824;4.718;2023-10-13T05:09:13;32.70;;;14.70;;
12707;SDS011;6418;50.824;4.718;2023-10-13T05:11:58;33.57;;;14.73;;
12707;SDS011;6418;50.824;4.718;2023-10-13T05:14:43;30.40;;;15.03;;
12707;SDS011;6418;50.824;4.718;2023-10-13T05:17:27;30.97;;;14.20;;
12707;SDS011;6418;50.824;4.718;2023-10-13T05:20:12;29.37;;;13.93;;
12707;SDS011;6418;50.824;4.718;2023-10-13T05:22:56;29.20;;;14.30;;
12707;SDS011;6418;50.824;4.718;2023-10-13T05:25:41;29.23;;;13.93;;
12707;SDS011;6418;50.824;4.718;2023-10-13T05:28:26;32.73;;;14.13;;
12707;SDS011;6418;50.824;4.718;2023-10-13T05:31:11;34.37;;;14.30;;
12707;SDS011;6418;50.824;4.718;2023-10-13T05:33:55;33.27;;;14.00;;
12707;SDS011;6418;50.824;4.718;2023-10-13T05:36:39;29.47;;;13.80;;
12707;SDS011;6418;50.824;4.718;2023-10-13T05:39:23;27.70;;;13.60;;
12707;SDS011;6418;50.824;4.718;2023-10-13T05:42:08;33.23;;;14.40;;
12707;SDS011;6418;50.824;4.718;2023-10-13T05:44:54;25.93;;;13.47;;
12707;SDS011;6418;50.824;4.718;2023-10-13T05:47:42;31.53;;;13.43;;
12707;SDS011;6418;50.824;4.718;2023-10-13T05:50:26;31.63;;;14.47;;
12707;SDS011;6418;50.824;4.718;2023-10-13T05:53:15;30.73;;;13.63;;
12707;SDS011;6418;50.824;4.718;2023-10-13T05:56:11;29.23;;;13.20;;
12707;SDS011;6418;50.824;4.718;2023-10-13T05:58:56;26.90;;;12.63;;
12707;SDS011;6418;50.824;4.718;2023-10-13T06:01:41;27.90;;;12.67;;
12707;SDS011;6418;50.824;4.718;2023-10-13T06:04:26;29.77;;;12.83;;
12707;SDS011;6418;50.824;4.718;2023-10-13T06:07:10;28.73;;;13.00;;
12707;SDS011;6418;50.824;4.718;2023-10-13T06:09:54;25.43;;;12.53;;
12707;SDS011;6418;50.824;4.718;2023-10-13T06:12:38;25.83;;;12.43;;
12707;SDS011;6418;50.824;4.718;2023-10-13T06:15:22;25.17;;;12.17;;
12707;SDS011;6418;50.824;4.718;2023-10-13T06:18:10;26.27;;;12.47;;
12707;SDS011;6418;50.824;4.718;2023-10-13T06:20:54;26.97;;;12.20;;
12707;SDS011;6418;50.824;4.718;2023-10-13T06:23:38;24.20;;;12.50;;
12707;SDS011;6418;50.824;4.718;2023-10-13T06:26:28;28.17;;;12.80;;
12707;SDS011;6418;50.824;4.718;2023-10-13T06:29:12;26.17;;;12.23;;
12707;SDS011;6418;50.824;4.718;2023-10-13T06:31:44;25.90;;;12.37;;
12707;SDS011;6418;50.824;4.718;2023-10-13T06:34:14;28.20;;;12.37;;
12707;SDS011;6418;50.824;4.718;2023-10-13T06:36:41;23.43;;;11.67;;
12707;SDS011;6418;50.824;4.718;2023-10-13T06:39:11;23.73;;;12.53;;
12707;SDS011;6418;50.824;4.718;2023-10-13T06:42:00;30.90;;;12.10;;
12707;SDS011;6418;50.824;4.718;2023-10-13T06:44:28;28.43;;;12.30;;
12707;SDS011;6418;50.824;4.718;2023-10-13T06:46:57;24.10;;;11.87;;
12707;SDS011;6418;50.824;4.718;2023-10-13T06:49:30;26.10;;;11.53;;
12707;SDS011;6418;50.824;4.718;2023-10-13T06:52:03;24.37;;;11.27;;
12707;SDS011;6418;50.824;4.718;2023-10-13T06:54:31;22.40;;;11.37;;
12707;SDS011;6418;50.824;4.718;2023-10-13T06:57:00;22.00;;;11.40;;
12707;SDS011;6418;50.824;4.718;2023-10-13T06:59:29;23.37;;;11.13;;
12707;SDS011;6418;50.824;4.718;2023-10-13T07:01:58;24.63;;;10.73;;
12707;SDS011;6418;50.824;4.718;2023-10-13T07:04:31;23.63;;;11.57;;
12707;SDS011;6418;50.824;4.718;2023-10-13T07:06:58;29.03;;;11.47;;
12707;SDS011;6418;50.824;4.718;2023-10-13T07:09:26;21.63;;;11.03;;
12707;SDS011;6418;50.824;4.718;2023-10-13T07:12:05;25.17;;;10.87;;
12707;SDS011;6418;50.824;4.718;2023-10-13T07:14:44;19.97;;;10.07;;
12707;SDS011;6418;50.824;4.718;2023-10-13T07:17:16;24.63;;;10.07;;
12707;SDS011;6418;50.824;4.718;2023-10-13T07:19:50;22.93;;;10.00;;
12707;SDS011;6418;50.824;4.718;2023-10-13T07:22:22;23.07;;;10.50;;
12707;SDS011;6418;50.824;4.718;2023-10-13T07:24:51;24.33;;;10.20;;
12707;SDS011;6418;50.824;4.718;2023-10-13T07:27:18;28.27;;;10.43;;
12707;SDS011;6418;50.824;4.718;2023-10-13T07:29:49;23.10;;;10.13;;
12707;SDS011;6418;50.824;4.718;2023-10-13T07:32:21;20.13;;;9.30;;
12707;SDS011;6418;50.824;4.718;2023-10-13T07:34:53;22.43;;;9.47;;
12707;SDS011;6418;50.824;4.718;2023-10-13T07:37:22;21.33;;;9.43;;
12707;SDS011;6418;50.824;4.718;2023-10-13T07:39:54;23.43;;;9.37;;
12707;SDS011;6418;50.824;4.718;2023-10-13T07:42:24;22.50;;;9.93;;
12707;SDS011;6418;50.824;4.718;2023-10-13T07:44:57;24.23;;;9.63;;
12707;SDS011;6418;50.824;4.718;2023-10-13T07:47:24;18.00;;;9.03;;
12707;SDS011;6418;50.824;4.718;2023-10-13T07:49:54;19.55;;;9.18;;
12707;SDS011;6418;50.824;4.718;2023-10-13T07:52:22;20.27;;;9.07;;
12707;SDS011;6418;50.824;4.718;2023-10-13T07:55:19;19.65;;;9.48;;
12707;SDS011;6418;50.824;4.718;2023-10-13T07:57:46;20.50;;;9.15;;
12707;SDS011;6418;50.824;4.718;2023-10-13T08:00:20;22.02;;;9.00;;
12707;SDS011;6418;50.824;4.718;2023-10-13T08:02:58;19.92;;;8.90;;
12707;SDS011;6418;50.824;4.718;2023-10-13T08:05:36;18.63;;;8.45;;
12707;SDS011;6418;50.824;4.718;2023-10-13T08:08:07;16.98;;;7.82;;
12707;SDS011;6418;50.824;4.718;2023-10-13T08:10:39;20.75;;;8.75;;
12707;SDS011;6418;50.824;4.718;2023-10-13T08:13:10;20.88;;;8.52;;
12707;SDS011;6418;50.824;4.718;2023-10-13T08:15:39;22.38;;;8.73;;
12707;SDS011;6418;50.824;4.718;2023-10-13T08:18:12;22.40;;;8.60;;
12707;SDS011;6418;50.824;4.718;2023-10-13T08:20:46;19.77;;;8.40;;
12707;SDS011;6418;50.824;4.718;2023-10-13T08:23:17;19.15;;;8.98;;
12707;SDS011;6418;50.824;4.718;2023-10-13T08:25:59;20.77;;;8.68;;
12707;SDS011;6418;50.824;4.718;2023-10-13T08:28:44;20.98;;;9.02;;
12707;SDS011;6418;50.824;4.718;2023-10-13T08:31:19;24.52;;;9.18;;
12707;SDS011;6418;50.824;4.718;2023-10-13T08:33:47;18.80;;;8.82;;
12707;SDS011;6418;50.824;4.718;2023-10-13T08:36:16;22.65;;;9.07;;
12707;SDS011;6418;50.824;4.718;2023-10-13T08:38:55;20.00;;;8.85;;
12707;SDS011;6418;50.824;4.718;2023-10-13T08:41:22;22.95;;;8.77;;
12707;SDS011;6418;50.824;4.718;2023-10-13T08:43:55;19.45;;;9.20;;
12707;SDS011;6418;50.824;4.718;2023-10-13T08:46:34;18.10;;;8.73;;
12707;SDS011;6418;50.824;4.718;2023-10-13T08:49:31;19.02;;;8.98;;
12707;SDS011;6418;50.824;4.718;2023-10-13T08:52:07;16.25;;;8.63;;
12707;SDS011;6418;50.824;4.718;2023-10-13T08:55:06;21.80;;;9.52;;
12707;SDS011;6418;50.824;4.718;2023-10-13T08:57:50;17.45;;;9.25;;
12707;SDS011;6418;50.824;4.718;2023-10-13T09:00:18;20.30;;;9.00;;
12707;SDS011;6418;50.824;4.718;2023-10-13T09:03:14;18.20;;;8.70;;
12707;SDS011;6418;50.824;4.718;2023-10-13T09:05:54;18.85;;;8.90;;
12707;SDS011;6418;50.824;4.718;2023-10-13T09:08:29;22.05;;;9.45;;
12707;SDS011;6418;50.824;4.718;2023-10-13T09:11:01;21.35;;;9.52;;
12707;SDS011;6418;50.824;4.718;2023-10-13T09:13:36;21.23;;;9.35;;
12707;SDS011;6418;50.824;4.718;2023-10-13T09:16:09;19.00;;;9.50;;
12707;SDS011;6418;50.824;4.718;2023-10-13T09:18:41;18.58;;;9.30;;
12707;SDS011;6418;50.824;4.718;2023-10-13T09:21:11;20.08;;;8.95;;
12707;SDS011;6418;50.824;4.718;2023-10-13T09:23:58;20.33;;;9.50;;
12707;SDS011;6418;50.824;4.718;2023-10-13T09:26:38;20.05;;;8.52;;
12707;SDS011;6418;50.824;4.718;2023-10-13T09:29:14;24.45;;;9.30;;
12707;SDS011;6418;50.824;4.718;2023-10-13T09:31:43;19.42;;;9.70;;
12707;SDS011;6418;50.824;4.718;2023-10-13T09:34:10;19.45;;;9.45;;
12707;SDS011;6418;50.824;4.718;2023-10-13T09:36:45;19.83;;;9.27;;
12707;SDS011;6418;50.824;4.718;2023-10-13T09:39:14;19.15;;;9.48;;
12707;SDS011;6418;50.824;4.718;2023-10-13T09:41:55;21.73;;;8.98;;
12707;SDS011;6418;50.824;4.718;2023-10-13T09:44:21;19.98;;;9.57;;
12707;SDS011;6418;50.824;4.718;2023-10-13T09:46:48;19.42;;;9.27;;
12707;SDS011;6418;50.824;4.718;2023-10-13T09:49:16;19.63;;;9.40;;
12707;SDS011;6418;50.824;4.718;2023-10-13T09:52:10;18.60;;;9.15;;
12707;SDS011;6418;50.824;4.718;2023-10-13T09:54:46;18.95;;;9.40;;
12707;SDS011;6418;50.824;4.718;2023-10-13T09:57:26;23.40;;;9.70;;
12707;SDS011;6418;50.824;4.718;2023-10-13T10:00:00;21.52;;;9.20;;
12707;SDS011;6418;50.824;4.718;2023-10-13T10:02:40;20.80;;;9.57;;
12707;SDS011;6418;50.824;4.718;2023-10-13T10:05:09;19.38;;;9.48;;
12707;SDS011;6418;50.824;4.718;2023-10-13T10:07:53;19.23;;;8.93;;
12707;SDS011;6418;50.824;4.718;2023-10-13T10:10:22;21.02;;;9.05;;
12707;SDS011;6418;50.824;4.718;2023-10-13T10:12:52;21.30;;;9.70;;
12707;SDS011;6418;50.824;4.718;2023-10-13T10:15:26;21.95;;;9.32;;
12707;SDS011;6418;50.824;4.718;2023-10-13T10:17:59;19.40;;;9.52;;
12707;SDS011;6418;50.824;4.718;2023-10-13T10:20:28;19.98;;;8.63;;
12707;SDS011;6418;50.824;4.718;2023-10-13T10:23:04;22.40;;;8.93;;
12707;SDS011;6418;50.824;4.718;2023-10-13T10:25:36;17.58;;;8.50;;
12707;SDS011;6418;50.824;4.718;2023-10-13T10:28:04;22.10;;;9.50;;
12707;SDS011;6418;50.824;4.718;2023-10-13T10:30:32;21.48;;;8.50;;
12707;SDS011;6418;50.824;4.718;2023-10-13T10:33:04;28.67;;;8.60;;
12707;SDS011;6418;50.824;4.718;2023-10-13T10:35:37;21.98;;;8.73;;
12707;SDS011;6418;50.824;4.718;2023-10-13T10:38:08;19.63;;;8.88;;
12707;SDS011;6418;50.824;4.718;2023-10-13T10:40:52;21.70;;;8.57;;
12707;SDS011;6418;50.824;4.718;2023-10-13T10:43:24;22.35;;;8.77;;
12707;SDS011;6418;50.824;4.718;2023-10-13T10:46:06;23.83;;;8.20;;
12707;SDS011;6418;50.824;4.718;2023-10-13T10:48:36;23.00;;;8.73;;
12707;SDS011;6418;50.824;4.718;2023-10-13T10:51:08;22.38;;;8.02;;
12707;SDS011;6418;50.824;4.718;2023-10-13T10:53:46;21.58;;;8.23;;
12707;SDS011;6418;50.824;4.718;2023-10-13T10:56:16;19.25;;;8.43;;
12707;SDS011;6418;50.824;4.718;2023-10-13T10:58:50;20.13;;;7.95;;
12707;SDS011;6418;50.824;4.718;2023-10-13T11:01:25;25.02;;;8.43;;
12707;SDS011;6418;50.824;4.718;2023-10-13T11:03:59;24.67;;;8.48;;
12707;SDS011;6418;50.824;4.718;2023-10-13T11:06:33;26.83;;;8.40;;
12707;SDS011;6418;50.824;4.718;2023-10-13T11:09:07;22.00;;;8.25;;
12707;SDS011;6418;50.824;4.718;2023-10-13T11:11:45;23.60;;;8.35;;
12707;SDS011;6418;50.824;4.718;2023-10-13T11:14:21;20.88;;;7.40;;
12707;SDS011;6418;50.824;4.718;2023-10-13T11:16:51;22.63;;;8.05;;
12707;SDS011;6418;50.824;4.718;2023-10-13T11:19:20;21.10;;;7.78;;
12707;SDS011;6418;50.824;4.718;2023-10-13T11:21:51;24.38;;;8.40;;
12707;SDS011;6418;50.824;4.718;2023-10-13T11:24:21;21.27;;;8.10;;
12707;SDS011;6418;50.824;4.718;2023-10-13T11:26:49;20.85;;;7.88;;
12707;SDS011;6418;50.824;4.718;2023-10-13T11:29:17;20.33;;;8.30;;
12707;SDS011;6418;50.824;4.718;2023-10-13T11:31:46;21.75;;;8.07;;
12707;SDS011;6418;50.824;4.718;2023-10-13T11:34:19;22.52;;;8.05;;
12707;SDS011;6418;50.824;4.718;2023-10-13T11:36:49;27.38;;;8.27;;
12707;SDS011;6418;50.824;4.718;2023-10-13T11:39:16;21.33;;;8.38;;
12707;SDS011;6418;50.824;4.718;2023-10-13T11:41:50;22.20;;;7.97;;
12707;SDS011;6418;50.824;4.718;2023-10-13T11:44:20;22.70;;;8.07;;
12707;SDS011;6418;50.824;4.718;2023-10-13T11:46:56;25.17;;;9.00;;
12707;SDS011;6418;50.824;4.718;2023-10-13T11:49:32;24.40;;;8.90;;
12707;SDS011;6418;50.824;4.718;2023-10-13T11:52:02;23.55;;;8.80;;
12707;SDS011;6418;50.824;4.718;2023-10-13T11:54:44;28.20;;;8.77;;
12707;SDS011;6418;50.824;4.718;2023-10-13T11:57:16;22.48;;;7.82;;
12707;SDS011;6418;50.824;4.718;2023-10-13T11:59:46;20.75;;;8.40;;
12707;SDS011;6418;50.824;4.718;2023-10-13T12:02:21;23.50;;;7.75;;
12707;SDS011;6418;50.824;4.718;2023-10-13T12:05:05;20.55;;;8.00;;
12707;SDS011;6418;50.824;4.718;2023-10-13T12:07:38;21.95;;;8.32;;
12707;SDS011;6418;50.824;4.718;2023-10-13T12:10:13;23.33;;;8.32;;
12707;SDS011;6418;50.824;4.718;2023-10-13T12:12:59;23.92;;;8.32;;
12707;SDS011;6418;50.824;4.718;2023-10-13T12:15:31;18.95;;;7.82;;
12707;SDS011;6418;50.824;4.718;2023-10-13T12:18:13;26.15;;;8.27;;
12707;SDS011;6418;50.824;4.718;2023-10-13T12:20:41;19.15;;;8.48;;
12707;SDS011;6418;50.824;4.718;2023-10-13T12:23:10;24.17;;;8.25;;
12707;SDS011;6418;50.824;4.718;2023-10-13T12:25:42;21.85;;;8.57;;
12707;SDS011;6418;50.824;4.718;2023-10-13T12:28:27;23.13;;;8.15;;
12707;SDS011;6418;50.824;4.718;2023-10-13T12:30:56;25.58;;;8.30;;
12707;SDS011;6418;50.824;4.718;2023-10-13T12:33:32;20.55;;;7.88;;
12707;SDS011;6418;50.824;4.718;2023-10-13T12:36:03;23.52;;;7.80;;
12707;SDS011;6418;50.824;4.718;2023-10-13T12:38:34;21.08;;;8.20;;
12707;SDS011;6418;50.824;4.718;2023-10-13T12:41:37;20.75;;;8.23;;
12707;SDS011;6418;50.824;4.718;2023-10-13T12:44:23;19.92;;;7.88;;
12707;SDS011;6418;50.824;4.718;2023-10-13T12:47:08;22.38;;;7.68;;
12707;SDS011;6418;50.824;4.718;2023-10-13T12:49:52;20.13;;;7.93;;
12707;SDS011;6418;50.824;4.718;2023-10-13T12:52:24;22.73;;;7.72;;
12707;SDS011;6418;50.824;4.718;2023-10-13T12:54:52;25.45;;;8.45;;
12707;SDS011;6418;50.824;4.718;2023-10-13T12:57:31;17.55;;;7.05;;
12707;SDS011;6418;50.824;4.718;2023-10-13T13:00:00;20.90;;;7.60;;
12707;SDS011;6418;50.824;4.718;2023-10-13T13:02:41;19.52;;;7.50;;
12707;SDS011;6418;50.824;4.718;2023-10-13T13:05:09;24.13;;;8.20;;
12707;SDS011;6418;50.824;4.718;2023-10-13T13:07:38;20.20;;;7.28;;
12707;SDS011;6418;50.824;4.718;2023-10-13T13:10:09;20.27;;;8.10;;
12707;SDS011;6418;50.824;4.718;2023-10-13T13:12:38;19.08;;;7.55;;
12707;SDS011;6418;50.824;4.718;2023-10-13T13:15:08;20.63;;;7.72;;
12707;SDS011;6418;50.824;4.718;2023-10-13T13:17:36;18.20;;;7.40;;
12707;SDS011;6418;50.824;4.718;2023-10-13T13:20:04;18.15;;;7.35;;
12707;SDS011;6418;50.824;4.718;2023-10-13T13:22:37;23.30;;;7.65;;
12707;SDS011;6418;50.824;4.718;2023-10-13T13:25:04;19.15;;;7.47;;
12707;SDS011;6418;50.824;4.718;2023-10-13T13:27:35;20.15;;;8.00;;
12707;SDS011;6418;50.824;4.718;2023-10-13T13:30:09;17.27;;;7.30;;
12707;SDS011;6418;50.824;4.718;2023-10-13T13:32:38;16.15;;;7.70;;
12707;SDS011;6418;50.824;4.718;2023-10-13T13:35:06;16.85;;;7.47;;
12707;SDS011;6418;50.824;4.718;2023-10-13T13:37:38;20.38;;;7.50;;
12707;SDS011;6418;50.824;4.718;2023-10-13T13:40:08;16.73;;;7.40;;
12707;SDS011;6418;50.824;4.718;2023-10-13T13:42:46;18.35;;;7.47;;
12707;SDS011;6418;50.824;4.718;2023-10-13T13:45:15;18.70;;;7.90;;
12707;SDS011;6418;50.824;4.718;2023-10-13T13:47:47;20.95;;;7.70;;
12707;SDS011;6418;50.824;4.718;2023-10-13T13:50:18;23.60;;;7.25;;
12707;SDS011;6418;50.824;4.718;2023-10-13T13:52:50;16.92;;;7.20;;
12707;SDS011;6418;50.824;4.718;2023-10-13T13:55:18;18.08;;;7.43;;
12707;SDS011;6418;50.824;4.718;2023-10-13T13:57:45;17.45;;;7.47;;
12707;SDS011;6418;50.824;4.718;2023-10-13T14:00:17;18.95;;;7.68;;
12707;SDS011;6418;50.824;4.718;2023-10-13T14:02:48;19.95;;;7.53;;
12707;SDS011;6418;50.824;4.718;2023-10-13T14:05:15;17.55;;;6.68;;
12707;SDS011;6418;50.824;4.718;2023-10-13T14:07:42;18.85;;;6.80;;
12707;SDS011;6418;50.824;4.718;2023-10-13T14:10:14;18.10;;;7.47;;
12707;SDS011;6418;50.824;4.718;2023-10-13T14:12:56;17.02;;;7.30;;
12707;SDS011;6418;50.824;4.718;2023-10-13T14:15:35;18.02;;;7.40;;
12707;SDS011;6418;50.824;4.718;2023-10-13T14:18:09;18.73;;;7.60;;
12707;SDS011;6418;50.824;4.718;2023-10-13T14:20:39;18.23;;;7.38;;
12707;SDS011;6418;50.824;4.718;2023-10-13T14:23:07;17.55;;;7.38;;
12707;SDS011;6418;50.824;4.718;2023-10-13T14:25:37;16.92;;;7.38;;
12707;SDS011;6418;50.824;4.718;2023-10-13T14:28:09;19.17;;;7.53;;
12707;SDS011;6418;50.824;4.718;2023-10-13T14:30:43;16.60;;;7.30;;
12707;SDS011;6418;50.824;4.718;2023-10-13T14:33:11;19.25;;;7.40;;
12707;SDS011;6418;50.824;4.718;2023-10-13T14:35:38;18.23;;;6.95;;
12707;SDS011;6418;50.824;4.718;2023-10-13T14:38:05;17.60;;;7.00;;
12707;SDS011;6418;50.824;4.718;2023-10-13T14:40:32;18.75;;;7.25;;
12707;SDS011;6418;50.824;4.718;2023-10-13T14:42:59;18.45;;;7.45;;
12707;SDS011;6418;50.824;4.718;2023-10-13T14:45:26;17.02;;;7.53;;
12707;SDS011;6418;50.824;4.718;2023-10-13T14:47:54;19.08;;;7.10;;
12707;SDS011;6418;50.824;4.718;2023-10-13T14:50:21;22.55;;;7.32;;
12707;SDS011;6418;50.824;4.718;2023-10-13T14:52:49;17.35;;;7.10;;
12707;SDS011;6418;50.824;4.718;2023-10-13T14:55:16;17.92;;;6.90;;
12707;SDS011;6418;50.824;4.718;2023-10-13T14:57:46;19.48;;;7.38;;
12707;SDS011;6418;50.824;4.718;2023-10-13T15:00:15;18.80;;;7.13;;
12707;SDS011;6418;50.824;4.718;2023-10-13T15:02:50;17.50;;;7.72;;
12707;SDS011;6418;50.824;4.718;2023-10-13T15:05:19;19.33;;;7.30;;
12707;SDS011;6418;50.824;4.718;2023-10-13T15:07:46;19.38;;;7.70;;
12707;SDS011;6418;50.824;4.718;2023-10-13T15:10:13;16.25;;;7.32;;
12707;SDS011;6418;50.824;4.718;2023-10-13T15:12:41;16.40;;;7.75;;
12707;SDS011;6418;50.824;4.718;2023-10-13T15:15:10;20.02;;;7.45;;
12707;SDS011;6418;50.824;4.718;2023-10-13T15:17:41;18.10;;;7.90;;
12707;SDS011;6418;50.824;4.718;2023-10-13T15:20:08;20.95;;;8.27;;
12707;SDS011;6418;50.824;4.718;2023-10-13T15:22:42;18.92;;;8.00;;